Time;durP1;ratioP1;P1;durP2;ratioP2;P2;SDS_P1;SDS_P2;PMS_P1;PMS_P2;Temp;Humidity;BMP_temperature;BMP_pressure;BME280_temperature;BME280_humidity;BME280_pressure;Samples;Min_cycle;Max_cycle;Signal;HPM_P1;HPM_P2
2023/10/13 00:02:01;;;;;;;19.63;11.85;;;;;;;16.05;100.00;101189.81;6198913;23;20008;-85
2023/10/13 00:04:31;;;;;;;16.80;12.27;;;;;;;16.04;100.00;101189.00;6214407;23;20005;-81
2023/10/13 00:06:57;;;;;;;18.30;11.63;;;;;;;15.95;100.00;101178.47;6214292;23;20005;-80
2023/10/13 00:09:32;;;;;;;21.05;12.43;;;;;;;15.86;100.00;101160.97;6216689;23;20008;-83
2023/10/13 00:12:00;;;;;;;17.08;12.10;;;;;;;16.04;100.00;101185.56;6215702;23;20007;-74
2023/10/13 00:14:34;;;;;;;16.23;11.80;;;;;;;16.06;100.00;101178.44;6189522;23;20005;-78
2023/10/13 00:17:05;;;;;;;19.15;11.30;;;;;;;16.00;100.00;101171.94;6216422;23;20000;-78
2023/10/13 00:19:37;;;;;;;17.35;12.63;;;;;;;16.04;100.00;101181.19;6215892;23;20004;-82
2023/10/13 00:22:10;;;;;;;15.73;11.15;;;;;;;15.96;100.00;101165.31;6215729;23;20027;-74
2023/10/13 00:24:43;;;;;;;15.00;10.88;;;;;;;15.97;100.00;101161.78;6215886;23;20485;-77
2023/10/13 00:32:44;;;;;;;17.65;11.70;;;;;;;15.95;100.00;101168.06;6216305;23;20012;-80
2023/10/13 00:35:13;;;;;;;18.95;11.30;;;;;;;15.81;100.00;101142.28;6215852;23;20004;-79
2023/10/13 00:37:43;;;;;;;15.27;10.25;;;;;;;15.69;100.00;101120.66;6215669;23;20070;-80
2023/10/13 00:40:18;;;;;;;17.40;10.65;;;;;;;15.93;100.00;101156.94;6213399;23;20009;-82
2023/10/13 00:42:52;;;;;;;16.10;10.30;;;;;;;15.68;100.00;101119.00;6215613;23;20031;-83
2023/10/13 00:45:18;;;;;;;16.27;10.00;;;;;;;15.89;100.00;101151.13;6215714;23;20012;-73
2023/10/13 00:47:56;;;;;;;16.63;10.02;;;;;;;15.89;100.00;101158.13;6213481;23;20431;-79
2023/10/13 00:50:23;;;;;;;15.85;9.63;;;;;;;15.79;100.00;101145.00;6215779;23;20008;-74
2023/10/13 00:52:50;;;;;;;13.60;9.68;;;;;;;15.84;100.00;101155.06;6215673;23;20004;-75
2023/10/13 00:55:18;;;;;;;15.65;9.55;;;;;;;15.82;100.00;101147.34;6215260;23;20079;-75
2023/10/13 00:57:46;;;;;;;12.85;8.77;;;;;;;15.80;100.00;101146.66;6215569;23;20005;-75
2023/10/13 01:00:25;;;;;;;16.73;9.70;;;;;;;15.82;100.00;101133.50;6215627;23;20028;-74
2023/10/13 01:02:56;;;;;;;14.77;9.38;;;;;;;15.68;100.00;101119.81;6215378;23;20422;-74
2023/10/13 01:05:22;;;;;;;15.73;8.95;;;;;;;15.80;100.00;101132.81;6215278;23;20001;-74
2023/10/13 01:07:54;;;;;;;13.48;9.02;;;;;;;15.77;100.00;101118.28;6215242;23;20011;-74
2023/10/13 01:10:25;;;;;;;11.88;8.52;;;;;;;15.76;100.00;101119.22;6215366;23;20461;-80
2023/10/13 01:12:52;;;;;;;14.45;9.02;;;;;;;15.78;100.00;101125.13;6215236;23;20078;-74
2023/10/13 01:15:20;;;;;;;16.02;9.07;;;;;;;15.73;100.00;101111.63;6215669;23;20007;-74
2023/10/13 01:17:46;;;;;;;14.63;9.00;;;;;;;15.71;100.00;101114.38;6213800;23;20418;-75
2023/10/13 01:20:20;;;;;;;12.75;8.60;;;;;;;15.75;100.00;101110.59;6215173;23;20004;-75
2023/10/13 01:22:54;;;;;;;14.48;8.52;;;;;;;15.75;100.00;101105.38;6214985;23;20395;-79
2023/10/13 01:25:25;;;;;;;15.73;8.00;;;;;;;15.74;100.00;101097.69;6215339;23;19996;-77
2023/10/13 01:27:51;;;;;;;12.63;8.25;;;;;;;15.70;100.00;101096.25;6215055;23;20450;-77
2023/10/13 01:30:16;;;;;;;15.45;8.60;;;;;;;15.71;100.00;101100.53;6215443;23;20000;-79
2023/10/13 01:32:43;;;;;;;15.38;8.25;;;;;;;15.71;100.00;101100.53;6215265;23;20331;-77
2023/10/13 01:35:08;;;;;;;12.35;8.63;;;;;;;15.65;100.00;101081.03;6215581;23;20004;-78
2023/10/13 01:37:33;;;;;;;15.68;8.13;;;;;;;15.44;100.00;101049.72;6214807;23;20013;-77
2023/10/13 01:39:59;;;;;;;14.63;8.07;;;;;;;15.67;100.00;101080.91;6215089;23;20082;-79
2023/10/13 01:42:24;;;;;;;13.52;7.90;;;;;;;15.54;100.00;101062.00;6214784;23;20012;-76
2023/10/13 01:44:50;;;;;;;12.45;7.82;;;;;;;15.63;100.00;101075.13;6215191;23;20058;-84
2023/10/13 01:47:16;;;;;;;13.57;8.02;;;;;;;15.56;100.00;101058.31;6215020;23;20082;-75
2023/10/13 01:49:42;;;;;;;13.75;7.82;;;;;;;15.61;100.00;101063.97;6212273;23;20378;-75
2023/10/13 01:52:11;;;;;;;11.70;7.25;;;;;;;15.59;100.00;101059.81;6215108;23;20005;-80
2023/10/13 01:54:40;;;;;;;13.63;7.70;;;;;;;15.57;100.00;101056.53;6213054;23;20008;-85
2023/10/13 01:57:06;;;;;;;10.15;7.30;;;;;;;15.58;100.00;101055.56;6214922;23;20365;-82
2023/10/13 01:59:32;;;;;;;13.23;7.50;;;;;;;15.43;100.00;101032.41;6215333;23;20027;-80
2023/10/13 02:02:00;;;;;;;13.73;7.65;;;;;;;15.55;100.00;101041.03;6215280;23;20005;-85
2023/10/13 02:04:27;;;;;;;12.63;7.10;;;;;;;15.56;100.00;101042.69;6214864;23;20004;-84
2023/10/13 02:06:52;;;;;;;16.67;7.35;;;;;;;15.57;100.00;101038.31;6215039;23;20000;-82
2023/10/13 02:09:25;;;;;;;12.82;6.95;;;;;;;15.54;100.00;101034.19;6215139;23;20377;-85
2023/10/13 02:11:56;;;;;;;13.82;7.07;;;;;;;15.59;100.00;101028.59;6214815;23;20005;-78
2023/10/13 02:14:22;;;;;;;12.95;7.05;;;;;;;15.59;100.00;101020.78;6215104;23;20028;-85
2023/10/13 02:16:50;;;;;;;12.90;7.43;;;;;;;15.35;100.00;100990.59;6214936;23;20000;-82
2023/10/13 02:19:18;;;;;;;11.38;7.35;;;;;;;15.58;100.00;101029.53;6214696;23;20307;-82
2023/10/13 02:21:44;;;;;;;14.65;8.10;;;;;;;15.44;100.00;101005.47;6214896;23;20080;-81
2023/10/13 02:24:13;;;;;;;12.52;7.68;;;;;;;15.56;100.00;101029.66;6214809;23;20001;-76
2023/10/13 02:26:40;;;;;;;13.43;8.10;;;;;;;15.53;100.00;101027.28;6215057;23;20005;-82
2023/10/13 02:29:12;;;;;;;11.35;7.95;;;;;;;15.50;100.00;101010.16;6214611;23;20001;-81
2023/10/13 02:31:39;;;;;;;16.98;8.45;;;;;;;15.61;100.00;101027.53;6215067;23;20315;-82
2023/10/13 02:34:08;;;;;;;15.00;8.88;;;;;;;15.62;100.00;101015.34;6214710;23;20005;-81
2023/10/13 02:36:37;;;;;;;14.40;9.23;;;;;;;15.43;100.00;100979.53;6214642;23;20005;-73
2023/10/13 02:39:07;;;;;;;13.88;9.18;;;;;;;15.64;100.00;101003.06;6214958;23;20004;-79
2023/10/13 02:41:36;;;;;;;14.57;9.77;;;;;;;15.64;100.00;100995.25;6215020;23;20035;-79
2023/10/13 02:44:05;;;;;;;16.25;10.05;;;;;;;15.64;100.00;100992.66;6214875;23;20005;-81
2023/10/13 02:46:32;;;;;;;18.98;11.02;;;;;;;15.44;100.00;100950.00;6187773;23;20004;-83
2023/10/13 02:48:59;;;;;;;16.58;11.00;;;;;;;15.59;100.00;100966.13;6215025;23;20005;-80
2023/10/13 02:51:36;;;;;;;19.90;11.63;;;;;;;15.62;100.00;100958.91;6215125;23;20058;-76
2023/10/13 02:54:08;;;;;;;21.15;12.60;;;;;;;15.66;100.00;100962.09;6214955;23;20083;-81
2023/10/13 02:56:34;;;;;;;17.50;11.80;;;;;;;15.69;100.00;100957.47;6216896;23;20330;-75
2023/10/13 02:59:04;;;;;;;18.17;12.13;;;;;;;15.69;100.00;100960.06;6216659;23;20000;-80
2023/10/13 03:01:33;;;;;;;19.52;12.48;;;;;;;15.66;100.00;100942.09;6194851;23;20004;-81
2023/10/13 03:04:00;;;;;;;23.75;13.48;;;;;;;15.70;100.00;100945.25;6220509;23;20439;-80
2023/10/13 03:06:32;;;;;;;20.83;13.10;;;;;;;15.65;100.00;100935.25;6190625;23;20001;-82
2023/10/13 03:09:13;;;;;;;19.38;13.73;;;;;;;15.71;100.00;100934.72;6216802;23;20431;-83
2023/10/13 03:11:47;;;;;;;20.25;14.45;;;;;;;15.70;100.00;100924.44;6216748;23;20005;-75
2023/10/13 03:14:23;;;;;;;23.27;14.88;;;;;;;15.68;100.00;100903.75;6216361;23;20001;-72
2023/10/13 03:17:08;;;;;;;24.38;14.75;;;;;;;15.63;100.00;100889.44;6216425;23;20008;-81
2023/10/13 03:19:35;;;;;;;23.58;15.93;;;;;;;15.74;100.00;100911.06;6216539;23;20419;-80
2023/10/13 03:22:12;;;;;;;26.63;16.65;;;;;;;15.64;100.00;100880.72;6215064;23;20431;-82
2023/10/13 03:24:44;;;;;;;24.58;16.13;;;;;;;15.74;100.00;100895.44;6216458;23;20001;-82
2023/10/13 03:27:11;;;;;;;25.73;16.83;;;;;;;15.69;100.00;100879.34;6216649;23;20011;-82
2023/10/13 03:29:42;;;;;;;23.85;17.00;;;;;;;15.72;100.00;100879.09;6216440;23;20001;-75
2023/10/13 03:32:11;;;;;;;28.17;17.52;;;;;;;15.76;100.00;100880.50;6216404;23;20001;-77
2023/10/13 03:37:19;;;;;;;26.67;17.88;;;;;;;15.72;100.00;100855.66;6216412;23;20100;-81
2023/10/13 03:39:45;;;;;;;26.90;17.35;;;;;;;15.83;100.00;100872.16;6216204;23;20087;-84
2023/10/13 03:42:18;;;;;;;26.42;17.90;;;;;;;15.78;100.00;100846.50;6216170;23;20035;-79
2023/10/13 03:44:46;;;;;;;29.23;19.48;;;;;;;15.85;100.00;100854.66;6189584;23;20414;-82
2023/10/13 03:47:38;;;;;;;29.60;19.80;;;;;;;15.86;100.00;100849.31;6216336;23;20028;-83
2023/10/13 03:50:16;;;;;;;29.55;19.27;;;;;;;15.80;100.00;100838.56;6215543;23;20018;-83
2023/10/13 03:52:41;;;;;;;27.17;19.85;;;;;;;15.91;100.00;100847.13;6216297;23;20032;-80
2023/10/13 03:55:08;;;;;;;33.70;21.25;;;;;;;15.93;100.00;100844.41;6216109;23;20032;-81
2023/10/13 03:57:34;;;;;;;34.40;22.80;;;;;;;15.94;100.00;100833.84;6216468;23;20005;-83
2023/10/13 04:00:08;;;;;;;35.42;22.90;;;;;;;16.00;100.00;100838.53;6215874;23;20062;-82
2023/10/13 04:02:33;;;;;;;36.45;24.77;;;;;;;16.03;100.00;100829.63;6216283;23;20051;-81
2023/10/13 04:05:07;;;;;;;37.28;24.67;;;;;;;16.05;100.00;100822.50;6216096;23;20009;-83
2023/10/13 04:15:36;;;;;;;36.40;24.83;;;;;;;16.05;100.00;100780.84;6215861;23;20063;-74
2023/10/13 04:18:13;;;;;;;36.63;25.73;;;;;;;15.90;100.00;100761.31;6216187;23;20005;-77
2023/10/13 04:20:39;;;;;;;38.28;26.30;;;;;;;16.10;100.00;100783.84;6216240;23;20015;-81
2023/10/13 04:23:18;;;;;;;39.20;26.10;;;;;;;16.13;100.00;100788.81;6216349;23;20008;-73
2023/10/13 04:33:43;;;;;;;34.83;24.10;;;;;;;16.15;100.00;100779.06;6226033;23;20087;-73
2023/10/13 04:36:14;;;;;;;39.65;25.27;;;;;;;16.16;100.00;100761.66;6215597;23;20096;-76
2023/10/13 04:41:22;;;;;;;32.15;23.48;;;;;;;16.23;100.00;100755.78;6225585;23;20017;-81
2023/10/13 04:43:55;;;;;;;39.22;25.05;;;;;;;16.27;100.00;100772.78;6215661;23;20087;-79
2023/10/13 04:46:39;;;;;;;32.67;22.65;;;;;;;16.27;100.00;100772.78;6215537;23;20008;-82
2023/10/13 04:49:10;;;;;;;34.40;22.73;;;;;;;16.23;100.00;100752.34;6215673;23;20005;-79
2023/10/13 05:05:21;;;;;;;28.52;18.00;;;;;;;16.26;100.00;100744.25;6162221;23;20065;-79
2023/10/13 05:51:33;;;;;;;16.52;10.80;;;;;;;16.40;100.00;100678.69;6225294;23;20427;-79
2023/10/13 06:29:26;;;;;;;18.90;11.75;;;;;;;16.46;100.00;100669.53;6215668;23;20016;-76
2023/10/13 06:31:51;;;;;;;18.58;10.93;;;;;;;16.49;100.00;100684.88;6217009;23;20004;-78
2023/10/13 06:34:20;;;;;;;17.30;11.02;;;;;;;16.50;100.00;100676.91;6215306;23;20003;-80
2023/10/13 06:36:47;;;;;;;16.20;11.13;;;;;;;16.47;100.00;100663.34;6216813;23;20067;-82
2023/10/13 06:41:56;;;;;;;16.73;11.38;;;;;;;16.37;100.00;100633.84;6217188;23;20015;-89
2023/10/13 06:44:22;;;;;;;15.55;10.57;;;;;;;16.52;100.00;100655.94;6216954;23;20005;-84
2023/10/13 06:46:49;;;;;;;14.30;10.27;;;;;;;16.44;100.00;100634.97;6216556;23;20000;-86
2023/10/13 06:49:18;;;;;;;19.23;10.95;;;;;;;16.53;100.00;100652.38;6216864;23;20086;-83
2023/10/13 06:51:46;;;;;;;18.73;10.63;;;;;;;16.50;100.00;100647.41;6216932;23;20005;-86
2023/10/13 06:54:19;;;;;;;16.45;10.20;;;;;;;16.47;100.00;100627.66;6217096;23;20354;-82
2023/10/13 06:56:45;;;;;;;15.23;9.50;;;;;;;16.52;100.00;100630.69;6216474;23;20009;-76
2023/10/13 06:59:14;;;;;;;17.63;9.88;;;;;;;16.58;100.00;100631.91;6216676;23;20000;-86
2023/10/13 07:01:41;;;;;;;19.67;9.27;;;;;;;16.52;100.00;100622.06;6216605;23;20040;-79
2023/10/13 07:04:13;;;;;;;16.40;10.27;;;;;;;16.48;100.00;100607.63;6216841;23;20007;-83
2023/10/13 07:06:44;;;;;;;18.83;9.48;;;;;;;16.37;100.00;100589.56;6216889;23;20012;-84
2023/10/13 07:09:39;;;;;;;16.98;9.30;;;;;;;16.48;100.00;100594.59;6216899;23;20004;-81
2023/10/13 07:12:01;;;;;;;16.08;8.98;;;;;;;16.58;100.00;100608.44;6216344;23;20016;-87
2023/10/13 07:14:26;;;;;;;14.32;9.20;;;;;;;16.58;100.00;100598.00;6216725;23;20001;-79
2023/10/13 07:16:59;;;;;;;18.13;8.88;;;;;;;16.62;100.00;100599.41;6216134;23;20011;-78
2023/10/13 07:19:28;;;;;;;15.35;9.20;;;;;;;16.58;100.00;100580.59;6216610;23;20013;-84
2023/10/13 07:21:59;;;;;;;17.42;10.00;;;;;;;16.71;100.00;100593.34;6216611;23;20004;-84
2023/10/13 07:24:39;;;;;;;17.65;9.80;;;;;;;16.59;100.00;100565.75;6217004;23;20365;-86
2023/10/13 07:27:05;;;;;;;17.02;9.98;;;;;;;16.77;100.00;100586.75;6216841;23;20008;-79
2023/10/13 07:29:35;;;;;;;21.15;10.30;;;;;;;16.69;100.00;100565.75;6216352;23;20012;-81
2023/10/13 07:32:05;;;;;;;16.50;9.63;;;;;;;16.74;100.00;100558.34;6216262;23;20082;-78
2023/10/13 07:34:35;;;;;;;20.30;10.65;;;;;;;16.92;100.00;100590.53;6189688;23;20004;-85
2023/10/13 07:37:01;;;;;;;20.05;9.02;;;;;;;16.78;100.00;100549.25;6216128;23;20501;-85
2023/10/13 07:39:39;;;;;;;17.33;8.43;;;;;;;17.07;100.00;100601.31;6216163;23;20028;-76
2023/10/13 07:42:05;;;;;;;15.27;8.45;;;;;;;17.15;100.00;100598.81;6215859;23;20028;-84
2023/10/13 07:44:40;;;;;;;16.92;8.50;;;;;;;17.15;100.00;100578.75;6216336;23;20001;-76
2023/10/13 07:47:07;;;;;;;16.48;7.88;;;;;;;17.35;100.00;100589.09;6216122;23;20011;-84
2023/10/13 07:49:37;;;;;;;17.08;8.68;;;;;;;17.40;100.00;100582.47;6216426;23;20012;-84
2023/10/13 07:52:23;;;;;;;17.02;7.38;;;;;;;17.35;100.00;100555.16;6216158;23;20399;-80
2023/10/13 07:57:55;;;;;;;15.55;7.43;;;;;;;17.55;100.00;100577.56;6096989;23;20043;-86
2023/10/13 08:05:58;;;;;;;14.10;6.60;;;;;;;17.72;100.00;100570.75;6102670;23;20089;-83
2023/10/13 08:08:39;;;;;;;13.32;6.65;;;;;;;17.63;100.00;100535.06;6094205;23;20010;-75
2023/10/13 08:11:11;;;;;;;13.38;7.22;;;;;;;17.86;100.00;100566.78;6094773;23;20015;-85
2023/10/13 08:13:46;;;;;;;13.57;7.05;;;;;;;17.76;100.00;100548.56;6094524;23;20218;-84
2023/10/13 08:16:22;;;;;;;14.70;6.75;;;;;;;17.98;100.00;100565.56;6094371;23;20014;-80
2023/10/13 08:18:51;;;;;;;15.02;6.90;;;;;;;18.08;100.00;100565.50;6094128;23;20006;-85
2023/10/13 08:21:18;;;;;;;17.33;7.68;;;;;;;17.88;100.00;100523.03;6094225;23;20010;-84
2023/10/13 08:29:53;;;;;;;19.70;6.80;;;;;;;18.65;100.00;100568.53;6074374;23;20021;-81
2023/10/13 08:34:29;;;;;;;15.23;6.78;;;;;;;18.81;100.00;100542.47;6173955;23;20104;-84
2023/10/13 08:36:56;;;;;;;13.70;6.22;;;;;;;18.96;100.00;100559.19;6215388;23;20092;-82
2023/10/13 08:42:13;;;;;;;17.67;6.30;;;;;;;18.98;100.00;100535.50;6216200;23;20016;-73
2023/10/13 08:44:45;;;;;;;13.32;6.13;;;;;;;18.85;100.00;100521.03;6215663;23;20005;-85
2023/10/13 08:47:18;;;;;;;15.80;7.82;;;;;;;19.08;100.00;100555.34;6215624;23;20035;-84
2023/10/13 08:49:50;;;;;;;12.10;6.78;;;;;;;19.12;100.00;100546.19;6215698;23;20327;-82
2023/10/13 08:55:39;;;;;;;13.13;6.18;;;;;;;19.07;100.00;100543.19;6215446;23;20019;-81
2023/10/13 08:58:12;;;;;;;12.07;6.15;;;;;;;18.94;100.00;100526.31;6214447;23;20005;-80
2023/10/13 09:00:58;;;;;;;12.00;6.25;;;;;;;19.09;100.00;100535.22;6215551;23;20011;-83
2023/10/13 09:03:29;;;;;;;15.20;7.00;;;;;;;19.16;100.00;100525.72;6215048;23;20015;-80
2023/10/13 09:06:01;;;;;;;13.73;6.15;;;;;;;19.25;100.00;100524.78;6215475;23;20438;-81
2023/10/13 09:08:35;;;;;;;13.63;6.38;;;;;;;19.30;100.00;100514.66;6215328;23;20001;-84
2023/10/13 09:11:13;;;;;;;12.38;6.13;;;;;;;19.42;100.00;100525.63;6214055;23;20005;-85
2023/10/13 09:13:45;;;;;;;11.63;6.35;;;;;;;19.41;100.00;100531.84;6215446;23;20008;-85
2023/10/13 09:16:17;;;;;;;16.13;5.65;;;;;;;19.36;100.00;100513.19;6215384;23;20039;-81
2023/10/13 09:18:46;;;;;;;13.45;6.28;;;;;;;19.36;100.00;100518.41;6215341;23;20326;-84
2023/10/13 09:21:43;;;;;;;14.25;6.47;;;;;;;19.24;100.00;100527.56;6215174;23;20008;-80
2023/10/13 09:24:21;;;;;;;14.55;5.80;;;;;;;19.12;100.00;100517.38;6215080;23;20001;-81
2023/10/13 09:26:53;;;;;;;15.30;6.28;;;;;;;19.06;100.00;100520.63;6215390;23;20004;-82
2023/10/13 09:29:19;;;;;;;15.25;6.57;;;;;;;19.04;100.00;100517.34;6215305;23;19996;-83
2023/10/13 09:31:48;;;;;;;12.13;6.15;;;;;;;18.97;100.00;100495.41;6215278;23;20013;-84
2023/10/13 09:34:30;;;;;;;15.30;6.60;;;;;;;18.94;100.00;100492.31;6214845;23;20484;-84
2023/10/13 09:37:03;;;;;;;11.73;6.35;;;;;;;19.13;100.00;100503.31;6191045;23;20071;-83
2023/10/13 09:39:29;;;;;;;13.93;6.47;;;;;;;19.32;100.00;100510.06;6191480;23;20477;-82
2023/10/13 09:44:49;;;;;;;13.93;6.35;;;;;;;18.94;100.00;100400.72;6218479;22;20032;-81
2023/10/13 09:47:25;;;;;;;15.93;6.70;;;;;;;19.68;100.00;100504.59;6215487;23;20009;-85
2023/10/13 09:50:05;;;;;;;16.00;6.60;;;;;;;19.73;100.00;100508.34;6215171;23;20001;-81
2023/10/13 09:52:31;;;;;;;12.85;6.13;;;;;;;19.71;100.00;100502.44;6214748;23;20016;-81
2023/10/13 09:55:09;;;;;;;18.92;6.80;;;;;;;19.73;100.00;100492.63;6215179;23;20047;-78
2023/10/13 09:57:40;;;;;;;14.65;6.45;;;;;;;19.86;100.00;100510.47;6215296;23;20058;-80
2023/10/13 10:00:35;;;;;;;16.75;6.55;;;;;;;20.05;100.00;100489.16;6215094;23;20055;-83
2023/10/13 10:03:14;;;;;;;17.90;6.63;;;;;;;20.21;100.00;100485.69;6214870;23;20031;-83
2023/10/13 10:05:41;;;;;;;14.38;6.40;;;;;;;20.30;100.00;100494.34;6212655;23;20391;-81
2023/10/13 10:08:09;;;;;;;17.08;6.50;;;;;;;20.29;100.00;100487.47;6215107;23;20088;-82
2023/10/13 10:10:59;;;;;;;11.57;5.68;;;;;;;20.28;100.00;100476.16;6214785;23;20012;-81
2023/10/13 10:13:35;;;;;;;15.25;6.15;;;;;;;20.23;100.00;100459.28;6214832;23;20430;-81
2023/10/13 10:16:14;;;;;;;12.57;5.90;;;;;;;20.19;100.00;100471.94;6215000;23;20011;-84
2023/10/13 10:18:41;;;;;;;10.73;6.43;;;;;;;19.92;100.00;100452.16;6214839;23;20122;-80
2023/10/13 10:21:14;;;;;;;14.90;6.13;;;;;;;19.87;100.00;100467.56;6213073;23;20501;-81
2023/10/13 10:23:40;;;;;;;19.58;6.88;;;;;;;19.71;100.00;100451.84;6213577;23;20004;-77
2023/10/13 10:26:20;;;;;;;14.32;6.05;;;;;;;19.68;100.00;100465.28;6215651;23;19996;-79
2023/10/13 10:28:46;;;;;;;16.83;6.35;;;;;;;19.57;100.00;100440.25;6214707;23;20001;-80
2023/10/13 10:31:12;;;;;;;15.15;6.38;;;;;;;19.63;100.00;100459.72;6214829;23;20052;-79
2023/10/13 10:33:41;;;;;;;15.13;6.00;;;;;;;19.64;100.00;100449.06;6215259;23;20015;-76
2023/10/13 10:36:14;;;;;;;12.90;6.15;;;;;;;19.69;100.00;100448.59;6214568;23;20017;-80
2023/10/13 10:38:52;;;;;;;16.17;6.97;;;;;;;19.73;100.00;100439.41;6214901;23;20004;-76
2023/10/13 10:41:29;;;;;;;13.23;6.47;;;;;;;19.86;100.00;100438.88;6214593;23;20039;-77
2023/10/13 10:43:54;;;;;;;13.05;6.93;;;;;;;19.94;100.00;100442.31;6213867;23;20512;-81
2023/10/13 10:46:40;;;;;;;14.48;6.70;;;;;;;20.00;100.00;100446.91;6214325;23;20063;-78
2023/10/13 10:49:05;;;;;;;13.10;5.97;;;;;;;20.07;100.00;100433.97;6214610;23;20007;-80
2023/10/13 10:51:33;;;;;;;14.07;6.38;;;;;;;20.01;100.00;100419.69;6214265;23;20020;-82
2023/10/13 10:54:11;;;;;;;16.83;6.47;;;;;;;20.31;100.00;100436.50;6214184;23;20027;-74
2023/10/13 10:56:37;;;;;;;14.85;6.82;;;;;;;20.41;98.72;100432.84;6214281;23;20446;-81
2023/10/13 10:59:05;;;;;;;16.05;6.50;;;;;;;20.45;97.65;100418.44;6214587;23;20005;-79
2023/10/13 11:01:38;;;;;;;12.38;5.75;;;;;;;20.54;100.00;100435.78;6214453;23;20032;-80
2023/10/13 11:04:09;;;;;;;16.98;6.38;;;;;;;20.61;99.12;100453.28;6214488;23;20326;-79
2023/10/13 11:06:42;;;;;;;19.48;7.10;;;;;;;20.60;99.34;100446.41;6213988;23;20007;-71
2023/10/13 11:12:24;;;;;;;15.38;6.55;;;;;;;20.42;98.66;100401.22;6094541;23;20018;-77
2023/10/13 11:15:01;;;;;;;19.58;6.80;;;;;;;20.81;99.14;100445.00;6093504;23;20093;-80
2023/10/13 11:17:41;;;;;;;10.60;5.88;;;;;;;20.58;98.94;100382.81;6094910;23;20062;-83
2023/10/13 11:20:19;;;;;;;13.38;6.20;;;;;;;20.49;100.00;100389.09;6094967;23;20006;-78
2023/10/13 11:22:48;;;;;;;15.70;6.53;;;;;;;20.53;100.00;100406.09;6095226;23;20014;-80
2023/10/13 11:25:39;;;;;;;16.13;6.95;;;;;;;20.49;100.00;100396.13;6095431;23;20006;-79
2023/10/13 11:28:19;;;;;;;15.63;6.05;;;;;;;20.38;100.00;100391.25;6092080;23;20369;-80
2023/10/13 11:30:49;;;;;;;13.88;6.45;;;;;;;20.44;100.00;100395.81;6095230;23;20446;-80
2023/10/13 11:33:19;;;;;;;15.63;6.82;;;;;;;20.55;100.00;100367.41;6095134;23;20007;-79
2023/10/13 11:38:29;;;;;;;16.38;6.47;;;;;;;20.84;99.47;100377.25;6104560;23;20374;-80
2023/10/13 11:43:52;;;;;;;12.77;6.72;;;;;;;20.97;100.00;100366.16;6094631;23;20097;-80
2023/10/13 11:51:38;;;;;;;19.92;6.60;;;;;;;21.06;95.72;100335.41;6222065;23;20056;-81
2023/10/13 11:54:03;;;;;;;13.73;6.80;;;;;;;21.17;95.99;100345.50;6215980;23;20008;-81
2023/10/13 11:56:29;;;;;;;14.60;7.35;;;;;;;21.19;96.08;100343.50;6216452;23;20004;-83
2023/10/13 11:59:01;;;;;;;16.95;6.82;;;;;;;21.14;94.78;100337.97;6216341;23;20075;-80
2023/10/13 12:04:32;;;;;;;13.65;6.97;;;;;;;21.13;93.65;100333.69;6215797;23;20055;-79
2023/10/13 12:12:27;;;;;;;16.98;7.38;;;;;;;21.41;89.75;100326.09;6123999;23;20014;-75
2023/10/13 12:14:56;;;;;;;15.32;7.63;;;;;;;21.47;89.95;100328.84;6124273;23;20012;-79
2023/10/13 12:17:39;;;;;;;16.77;7.18;;;;;;;21.31;89.22;100284.31;6123793;23;20009;-80
2023/10/13 12:20:10;;;;;;;19.35;6.72;;;;;;;21.56;88.46;100324.31;6124106;23;20061;-80
2023/10/13 12:22:38;;;;;;;11.93;6.50;;;;;;;21.62;88.19;100341.97;6123262;23;20057;-80
2023/10/13 12:25:18;;;;;;;16.13;6.97;;;;;;;21.64;85.79;100307.66;6123947;23;20022;-82
2023/10/13 12:27:48;;;;;;;21.90;6.53;;;;;;;21.75;86.74;100320.34;6123988;23;20451;-78
2023/10/13 12:30:16;;;;;;;13.82;7.20;;;;;;;21.82;87.15;100330.91;6124081;23;20006;-78
2023/10/13 12:32:53;;;;;;;16.88;7.68;;;;;;;21.83;87.65;100338.66;6123969;23;20034;-80
2023/10/13 12:35:35;;;;;;;12.80;6.60;;;;;;;21.67;87.08;100310.72;6124036;23;20037;-79
2023/10/13 12:38:16;;;;;;;;;;;;;;;21.83;85.31;100328.13;6124149;23;20397;-78
2023/10/13 12:51:55;;;;;;;18.85;7.20;;;;;;;21.74;85.47;100316.09;6008106;23;20011;-79
2023/10/13 12:54:23;;;;;;;14.38;6.88;;;;;;;21.82;84.89;100307.25;6008291;23;20019;-81
2023/10/13 12:56:54;;;;;;;18.02;5.85;;;;;;;21.84;83.57;100314.00;6008331;23;20014;-79
2023/10/13 12:59:26;;;;;;;;;;;;;;;21.90;84.76;100294.03;6009109;23;20086;-77
2023/10/13 13:01:52;;;;;;;16.58;6.15;;;;;;;21.81;82.94;100301.19;6008203;23;20285;-82
2023/10/13 13:04:20;;;;;;;14.95;6.63;;;;;;;21.80;83.07;100304.00;6008817;23;20212;-78
2023/10/13 13:06:49;;;;;;;14.57;6.03;;;;;;;21.77;83.33;100307.81;6008627;23;20082;-81
2023/10/13 13:09:15;;;;;;;15.00;5.80;;;;;;;21.68;82.15;100307.09;6008532;23;20388;-80
2023/10/13 13:11:41;;;;;;;12.13;5.50;;;;;;;21.61;82.65;100295.66;6008490;23;20027;-80
2023/10/13 13:14:07;;;;;;;15.43;5.93;;;;;;;21.55;84.56;100306.09;6006786;23;20011;-76
2023/10/13 13:16:34;;;;;;;14.57;5.95;;;;;;;21.43;83.22;100269.78;6007853;23;20533;-80
2023/10/13 13:19:03;;;;;;;13.07;5.45;;;;;;;21.54;82.26;100284.28;6005356;23;20011;-74
2023/10/13 13:21:29;;;;;;;19.08;6.45;;;;;;;21.41;83.90;100260.44;6088790;23;20357;-80
2023/10/13 13:23:57;;;;;;;14.50;5.97;;;;;;;21.59;82.06;100275.84;6093735;23;20014;-77
2023/10/13 13:26:23;;;;;;;15.07;5.70;;;;;;;21.66;79.26;100279.38;6093927;23;20006;-75
2023/10/13 13:28:52;;;;;;;15.07;6.05;;;;;;;21.70;80.79;100280.63;6144249;23;20452;-80
2023/10/13 13:31:18;;;;;;;19.20;6.32;;;;;;;21.78;78.81;100285.78;6214773;23;20000;-74
2023/10/13 13:33:43;;;;;;;11.93;5.13;;;;;;;21.62;80.14;100280.72;6214802;23;20059;-73
2023/10/13 13:36:16;;;;;;;18.73;5.47;;;;;;;21.65;77.83;100286.44;6214973;23;20004;-82
2023/10/13 13:38:46;;;;;;;16.83;6.03;;;;;;;21.45;79.62;100270.41;6214417;23;20031;-77
2023/10/13 13:41:18;;;;;;;14.48;5.05;;;;;;;21.51;79.59;100286.44;6215117;23;20323;-76
2023/10/13 13:43:54;;;;;;;14.88;5.32;;;;;;;21.45;80.03;100287.97;6215215;23;20012;-74
2023/10/13 13:46:24;;;;;;;14.02;5.72;;;;;;;21.35;80.35;100279.56;6214533;23;20000;-78
2023/10/13 13:48:51;;;;;;;13.40;5.23;;;;;;;21.23;79.39;100254.66;6214942;23;20001;-80
2023/10/13 13:51:26;;;;;;;16.45;5.50;;;;;;;21.33;82.67;100281.53;6214747;23;20118;-76
2023/10/13 13:53:52;;;;;;;15.00;5.32;;;;;;;21.07;82.40;100242.53;6214493;23;20005;-76
2023/10/13 13:56:18;;;;;;;11.05;5.35;;;;;;;21.20;82.92;100275.06;6214743;23;20028;-81
2023/10/13 13:58:44;;;;;;;19.52;5.47;;;;;;;20.99;84.06;100247.84;6214771;23;20430;-82
2023/10/13 14:01:13;;;;;;;13.25;5.25;;;;;;;21.11;83.27;100268.25;6211247;23;20009;-80
2023/10/13 14:03:45;;;;;;;16.02;5.45;;;;;;;21.20;81.37;100279.50;6215278;23;20012;-83
2023/10/13 14:06:33;;;;;;;17.30;5.55;;;;;;;21.12;81.58;100264.63;6214769;23;20000;-79
2023/10/13 14:09:02;;;;;;;16.00;4.72;;;;;;;21.19;81.29;100259.47;6214675;23;20342;-77
2023/10/13 14:14:11;;;;;;;12.77;5.55;;;;;;;21.28;80.95;100274.19;6224486;23;20055;-77
2023/10/13 14:16:47;;;;;;;14.38;5.32;;;;;;;21.36;79.56;100282.00;6215085;23;20012;-76
2023/10/13 14:19:28;;;;;;;15.20;5.47;;;;;;;21.40;79.86;100287.69;6215183;23;20366;-78
2023/10/13 14:21:54;;;;;;;12.60;5.15;;;;;;;21.45;79.65;100275.66;6214971;23;20066;-79
2023/10/13 14:24:27;;;;;;;12.50;4.97;;;;;;;21.46;79.55;100287.81;6214307;23;20430;-80
2023/10/13 14:27:11;;;;;;;15.55;5.85;;;;;;;21.45;80.53;100270.41;6214954;23;20004;-81
2023/10/13 14:29:40;;;;;;;16.20;5.25;;;;;;;21.44;79.79;100273.22;6214579;23;20043;-82
2023/10/13 14:32:15;;;;;;;12.60;5.15;;;;;;;21.45;80.63;100274.84;6214931;23;20023;-78